Time;durP1;ratioP1;P1;durP2;ratioP2;P2;SDS_P1;SDS_P2;PMS_P1;PMS_P2;Temp;Humidity;BMP_temperature;BMP_pressure;BME280_temperature;BME280_humidity;BME280_pressure;Samples;Min_cycle;Max_cycle;Signal;HPM_P1;HPM_P2
2022/06/14 00:03:19;;;;;;;10.68;4.80;;;10.30;97.20;;;;;;5048960;28;20079;-70
2022/06/14 00:05:45;;;;;;;9.15;4.47;;;10.20;97.10;;;;;;4979442;28;20027;-69
2022/06/14 00:08:13;;;;;;;11.32;4.90;;;10.20;97.00;;;;;;4970717;28;20493;-70
2022/06/14 00:10:40;;;;;;;10.75;4.97;;;10.20;97.00;;;;;;4963626;28;20034;-70
2022/06/14 00:13:06;;;;;;;9.90;4.47;;;10.20;97.00;;;;;;4965002;28;20031;-71
2022/06/14 00:15:32;;;;;;;9.07;5.18;;;10.10;97.10;;;;;;4966023;28;20043;-70
2022/06/14 00:17:58;;;;;;;10.23;4.80;;;10.00;96.80;;;;;;4966610;28;20050;-70
2022/06/14 00:20:25;;;;;;;10.98;4.93;;;9.90;96.60;;;;;;4967857;28;20019;-70
2022/06/14 00:22:51;;;;;;;10.00;4.70;;;9.90;96.60;;;;;;4972365;28;20031;-70
2022/06/14 00:25:36;;;;;;;10.32;4.82;;;9.90;96.80;;;;;;4971186;28;20027;-70
2022/06/14 00:28:03;;;;;;;10.07;5.20;;;9.90;96.80;;;;;;4971654;28;20026;-70
2022/06/14 00:30:31;;;;;;;14.25;4.70;;;9.90;96.90;;;;;;4977448;28;20033;-70
2022/06/14 00:32:57;;;;;;;12.32;4.82;;;9.90;96.80;;;;;;4958995;28;20031;-70
2022/06/14 00:35:23;;;;;;;10.77;4.68;;;9.70;96.80;;;;;;4976184;28;20118;-71
2022/06/14 00:37:49;;;;;;;11.13;4.90;;;9.60;96.40;;;;;;4974904;28;20073;-70
2022/06/14 00:40:18;;;;;;;10.35;4.90;;;9.60;95.90;;;;;;4973683;28;20031;-71
2022/06/14 00:42:44;;;;;;;10.23;4.72;;;9.60;96.00;;;;;;4972074;28;20401;-70
2022/06/14 00:45:13;;;;;;;10.88;5.15;;;9.60;96.00;;;;;;4973063;28;20114;-70
2022/06/14 00:48:03;;;;;;;10.45;4.90;;;9.70;96.50;;;;;;4974667;28;20023;-70
2022/06/14 00:50:45;;;;;;;10.73;4.93;;;9.80;96.50;;;;;;4961816;28;20082;-71
2022/06/14 00:53:17;;;;;;;10.05;4.75;;;9.90;97.10;;;;;;4972412;28;20027;-70
2022/06/14 00:56:12;;;;;;;10.00;5.00;;;10.00;97.30;;;;;;4961940;28;20053;-70
2022/06/14 00:58:55;;;;;;;8.80;5.80;;;10.10;97.10;;;;;;4987810;28;20034;-70
2022/06/14 01:01:28;;;;;;;9.98;5.18;;;10.00;97.40;;;;;;4973544;28;20038;-70
2022/06/14 01:04:10;;;;;;;8.82;5.55;;;10.00;97.00;;;;;;4957790;28;20018;-70
2022/06/14 01:07:01;;;;;;;11.27;5.15;;;9.90;97.10;;;;;;4979125;28;20423;-70
2022/06/14 01:09:44;;;;;;;9.25;4.55;;;9.70;96.50;;;;;;4962399;28;20022;-70
2022/06/14 01:12:14;;;;;;;8.82;4.85;;;9.70;96.30;;;;;;4968890;28;20054;-70
2022/06/14 01:15:02;;;;;;;12.68;5.07;;;9.60;96.10;;;;;;4957946;28;20502;-71
2022/06/14 01:17:28;;;;;;;11.65;5.43;;;9.60;96.50;;;;;;4960914;28;20109;-71
2022/06/14 01:19:54;;;;;;;8.20;4.57;;;9.70;96.60;;;;;;4968458;28;20411;-71
2022/06/14 01:22:23;;;;;;;16.50;5.38;;;9.70;96.70;;;;;;4968919;28;20090;-69
2022/06/14 01:24:50;;;;;;;12.65;4.88;;;9.70;97.10;;;;;;4981655;28;20027;-70
2022/06/14 01:27:20;;;;;;;9.35;5.20;;;9.70;97.00;;;;;;4974491;28;20102;-69
2022/06/14 01:30:02;;;;;;;8.15;5.03;;;9.60;96.90;;;;;;4969868;28;20502;-70
2022/06/14 01:32:32;;;;;;;12.02;6.07;;;9.40;96.40;;;;;;4971625;28;20073;-69
2022/06/14 01:35:03;;;;;;;12.45;5.30;;;9.40;95.60;;;;;;4993709;28;20429;-71
2022/06/14 01:37:29;;;;;;;15.05;5.55;;;9.50;96.20;;;;;;4973821;28;20057;-69
2022/06/14 01:39:56;;;;;;;9.35;5.05;;;9.70;96.90;;;;;;4969739;28;20370;-70
2022/06/14 01:42:54;;;;;;;11.38;5.82;;;9.70;96.90;;;;;;4972901;28;20295;-71
2022/06/14 01:45:48;;;;;;;10.85;5.05;;;9.70;96.70;;;;;;4970924;28;20035;-70
2022/06/14 01:48:25;;;;;;;13.88;5.45;;;9.60;96.70;;;;;;4968589;28;20026;-68
2022/06/14 01:54:29;;;;;;;11.90;5.10;;;9.60;96.80;;;;;;4970173;28;20042;-70
2022/06/14 01:57:26;;;;;;;9.00;4.87;;;9.70;97.10;;;;;;4993930;28;20102;-70
2022/06/14 01:59:56;;;;;;;9.48;5.40;;;9.60;96.80;;;;;;4981471;28;20084;-70
2022/06/14 02:02:48;;;;;;;8.95;4.72;;;9.50;96.50;;;;;;4959187;28;20057;-70
2022/06/14 02:05:28;;;;;;;11.75;5.13;;;9.40;96.30;;;;;;4960547;28;20039;-70
2022/06/14 02:07:56;;;;;;;12.77;5.53;;;9.30;96.30;;;;;;4960871;28;20045;-71
2022/06/14 02:10:49;;;;;;;11.00;5.47;;;9.30;95.70;;;;;;4962966;28;20027;-70
2022/06/14 02:13:43;;;;;;;12.25;6.53;;;9.20;95.70;;;;;;4964475;28;20045;-71
2022/06/14 02:16:24;;;;;;;12.48;6.28;;;9.20;95.90;;;;;;4959391;28;20416;-70
2022/06/14 02:19:17;;;;;;;13.75;5.95;;;9.20;95.30;;;;;;4962958;28;20069;-69
2022/06/14 02:21:52;;;;;;;17.07;7.83;;;9.20;95.30;;;;;;4969778;28;20035;-68
2022/06/14 02:24:44;;;;;;;11.05;5.57;;;9.20;95.40;;;;;;4964769;28;20026;-69
2022/06/14 02:27:16;;;;;;;9.77;5.00;;;9.20;95.50;;;;;;4961087;28;20316;-70
2022/06/14 02:30:00;;;;;;;10.18;5.75;;;9.20;95.40;;;;;;4964888;28;20432;-70
2022/06/14 02:32:37;;;;;;;17.15;7.07;;;9.20;95.40;;;;;;4963306;28;20038;-71
2022/06/14 02:35:18;;;;;;;13.48;6.55;;;9.30;95.50;;;;;;4969867;28;20045;-70
2022/06/14 02:37:55;;;;;;;11.38;6.07;;;9.30;95.50;;;;;;4958302;28;20058;-71
2022/06/14 02:40:37;;;;;;;11.50;5.93;;;9.30;95.90;;;;;;4955283;28;20045;-71
2022/06/14 02:43:18;;;;;;;11.55;6.20;;;9.20;95.90;;;;;;4980632;28;20029;-71
2022/06/14 02:46:18;;;;;;;9.13;5.28;;;9.10;95.90;;;;;;4996900;28;20027;-70
2022/06/14 02:49:00;;;;;;;8.85;6.03;;;9.10;95.60;;;;;;4967347;28;20406;-70
2022/06/14 02:51:44;;;;;;;14.32;6.22;;;9.10;95.40;;;;;;4972007;28;20062;-70
2022/06/14 02:54:20;;;;;;;11.38;6.22;;;9.10;95.60;;;;;;4966408;28;20053;-71
2022/06/14 02:56:46;;;;;;;14.63;6.72;;;9.10;95.50;;;;;;4974395;28;20177;-71
2022/06/14 02:59:28;;;;;;;11.30;6.70;;;9.10;95.30;;;;;;4968496;28;20118;-70
2022/06/14 03:01:59;;;;;;;14.57;5.97;;;9.10;95.30;;;;;;4960872;28;20027;-70
2022/06/14 03:04:47;;;;;;;12.20;6.38;;;9.00;95.30;;;;;;4958815;28;20038;-71
2022/06/14 03:07:15;;;;;;;11.65;6.30;;;9.00;95.10;;;;;;4961818;28;20683;-71
2022/06/14 03:09:45;;;;;;;13.57;6.93;;;8.90;95.00;;;;;;5008510;28;20062;-71
2022/06/14 03:12:32;;;;;;;13.82;6.57;;;8.80;94.70;;;;;;4974390;28;20034;-72
2022/06/14 03:15:06;;;;;;;15.20;6.18;;;8.80;94.60;;;;;;4967670;28;20423;-71
2022/06/14 03:17:48;;;;;;;12.98;6.22;;;8.80;94.30;;;;;;4964354;28;20046;-70
2022/06/14 03:20:25;;;;;;;14.80;6.38;;;8.80;94.30;;;;;;4973863;28;20030;-71
2022/06/14 03:22:53;;;;;;;14.10;6.80;;;8.80;94.10;;;;;;4968037;28;20073;-71
2022/06/14 03:25:44;;;;;;;13.25;6.75;;;8.80;94.30;;;;;;5008064;28;20024;-71
2022/06/14 03:28:18;;;;;;;11.70;6.68;;;8.80;94.30;;;;;;4994824;28;20118;-71
2022/06/14 03:31:00;;;;;;;12.93;6.15;;;8.80;94.40;;;;;;4972399;28;20064;-71
2022/06/14 03:33:37;;;;;;;13.07;6.18;;;8.80;94.20;;;;;;4969350;28;20519;-71
2022/06/14 03:36:04;;;;;;;11.85;6.07;;;8.80;94.30;;;;;;4968948;28;20043;-70
2022/06/14 03:38:50;;;;;;;12.98;6.07;;;8.90;94.50;;;;;;4966287;28;20038;-70
2022/06/14 03:41:22;;;;;;;14.40;6.18;;;8.90;94.70;;;;;;4963464;28;20353;-71
2022/06/14 03:43:49;;;;;;;15.15;7.70;;;8.90;94.70;;;;;;4962679;28;20035;-70
2022/06/14 03:46:21;;;;;;;12.48;6.43;;;8.90;94.50;;;;;;4969121;28;20328;-70
2022/06/14 03:48:54;;;;;;;12.98;6.90;;;9.00;94.50;;;;;;4969852;28;20323;-70
2022/06/14 03:51:25;;;;;;;12.45;5.82;;;9.00;94.80;;;;;;5034256;28;20477;-70
2022/06/14 03:53:57;;;;;;;13.63;7.10;;;9.00;94.90;;;;;;4967054;28;20040;-70
2022/06/14 03:56:47;;;;;;;14.30;7.78;;;8.90;94.80;;;;;;4965576;28;20027;-71
2022/06/14 03:59:25;;;;;;;14.50;6.63;;;8.90;94.60;;;;;;4960133;28;20039;-71
2022/06/14 04:01:58;;;;;;;12.25;6.90;;;9.00;94.90;;;;;;4976467;28;20027;-70
2022/06/14 04:04:58;;;;;;;12.80;6.63;;;9.00;94.90;;;;;;4970137;28;20055;-71
2022/06/14 04:07:49;;;;;;;12.65;6.82;;;9.00;95.20;;;;;;4991678;28;20027;-71
2022/06/14 04:10:25;;;;;;;15.82;6.53;;;9.10;95.30;;;;;;4963706;28;20062;-71
2022/06/14 04:13:26;;;;;;;12.45;6.80;;;9.10;95.30;;;;;;4963873;28;20023;-69
2022/06/14 04:16:05;;;;;;;13.30;6.57;;;9.20;95.50;;;;;;4984231;28;20031;-70
2022/06/14 04:19:03;;;;;;;12.60;6.47;;;9.20;95.90;;;;;;4960695;28;20046;-70
2022/06/14 04:22:01;;;;;;;12.02;6.07;;;9.30;96.00;;;;;;4969051;28;20027;-70
2022/06/14 04:24:48;;;;;;;13.43;6.35;;;9.40;96.20;;;;;;5005893;28;20412;-70
2022/06/14 04:27:36;;;;;;;13.77;7.07;;;9.40;96.10;;;;;;4972875;28;20030;-70
2022/06/14 04:30:23;;;;;;;14.80;7.05;;;9.30;95.70;;;;;;5012918;28;20424;-70
2022/06/14 04:33:18;;;;;;;10.40;6.38;;;9.20;95.60;;;;;;4973429;28;20031;-69
2022/06/14 04:36:06;;;;;;;16.95;8.45;;;9.20;95.30;;;;;;4997321;28;20035;-70
2022/06/14 04:38:42;;;;;;;12.63;6.53;;;9.10;94.80;;;;;;4962584;28;20027;-70
2022/06/14 04:41:31;;;;;;;12.63;7.05;;;9.10;94.70;;;;;;4995595;28;20107;-70
2022/06/14 04:44:02;;;;;;;10.77;6.57;;;9.10;94.10;;;;;;4960382;28;20037;-70
2022/06/14 04:46:51;;;;;;;15.90;6.47;;;9.10;93.90;;;;;;4956987;28;20019;-70
2022/06/14 04:49:24;;;;;;;11.68;6.88;;;9.20;93.60;;;;;;4955750;28;20043;-70
2022/06/14 04:52:15;;;;;;;15.40;6.63;;;9.20;94.10;;;;;;4956212;28;20039;-70
2022/06/14 04:54:51;;;;;;;12.85;8.02;;;9.20;93.70;;;;;;4965869;28;20451;-70
2022/06/14 04:57:44;;;;;;;11.38;7.18;;;9.30;93.50;;;;;;4955933;28;20518;-70
2022/06/14 05:00:18;;;;;;;15.63;6.68;;;9.30;93.40;;;;;;5004710;28;20092;-71
2022/06/14 05:02:49;;;;;;;16.00;7.63;;;9.40;93.70;;;;;;4973338;28;20083;-70
2022/06/14 05:05:39;;;;;;;13.23;7.18;;;9.60;93.90;;;;;;4973316;28;20019;-70
2022/06/14 05:08:23;;;;;;;15.15;6.95;;;9.60;93.90;;;;;;4963394;28;20031;-70
2022/06/14 05:11:08;;;;;;;15.05;8.18;;;9.70;94.10;;;;;;4971827;28;20035;-69
2022/06/14 05:13:50;;;;;;;11.70;6.55;;;9.90;94.40;;;;;;4970878;28;20027;-69
2022/06/14 05:16:57;;;;;;;11.73;7.32;;;10.10;94.60;;;;;;4961994;28;20124;-69
2022/06/14 05:19:36;;;;;;;10.93;6.53;;;10.20;94.90;;;;;;4923528;29;20038;-68
2022/06/14 05:22:30;;;;;;;10.90;5.72;;;10.40;95.20;;;;;;4927970;29;20068;-70
2022/06/14 05:24:57;;;;;;;15.05;6.05;;;10.60;95.50;;;;;;4956693;28;20638;-70
2022/06/14 05:27:25;;;;;;;10.02;5.75;;;10.80;96.20;;;;;;4962216;28;20027;-69
2022/06/14 05:30:07;;;;;;;11.93;5.55;;;11.00;96.90;;;;;;4966696;28;20027;-70
2022/06/14 05:32:48;;;;;;;10.38;5.45;;;11.30;98.00;;;;;;4972380;28;20038;-70
2022/06/14 05:35:31;;;;;;;13.65;5.43;;;11.50;98.00;;;;;;4956247;28;20027;-69
2022/06/14 05:38:09;;;;;;;11.23;5.80;;;11.80;98.00;;;;;;4969465;28;20035;-70
2022/06/14 05:40:41;;;;;;;11.90;5.13;;;12.00;98.00;;;;;;4968091;28;20486;-69
2022/06/14 05:43:14;;;;;;;12.40;5.72;;;12.20;97.90;;;;;;4955798;28;20031;-69
2022/06/14 05:45:55;;;;;;;10.35;4.72;;;12.40;97.20;;;;;;4955497;28;20031;-70
2022/06/14 05:48:34;;;;;;;11.13;5.25;;;12.50;96.50;;;;;;4976390;28;20043;-70
2022/06/14 05:51:04;;;;;;;10.63;5.15;;;12.70;96.30;;;;;;4984587;28;20088;-70
2022/06/14 05:53:36;;;;;;;11.57;4.72;;;12.90;96.20;;;;;;4975134;28;20114;-68
2022/06/14 05:56:16;;;;;;;8.85;4.90;;;13.00;96.10;;;;;;4964600;28;20022;-69
2022/06/14 05:59:00;;;;;;;8.88;5.15;;;13.20;95.40;;;;;;5003634;28;20069;-69
2022/06/14 06:01:35;;;;;;;14.55;5.25;;;13.30;95.60;;;;;;4966942;28;20037;-69
2022/06/14 06:04:08;;;;;;;9.25;4.40;;;13.40;95.00;;;;;;4959240;28;20102;-69
2022/06/14 06:06:43;;;;;;;9.70;4.30;;;13.50;95.00;;;;;;4978104;28;20031;-69
2022/06/14 06:09:19;;;;;;;11.25;4.90;;;13.60;95.00;;;;;;4973234;28;20054;-69
2022/06/14 06:11:55;;;;;;;9.13;4.35;;;13.70;94.40;;;;;;4988819;28;20029;-69
2022/06/14 06:14:32;;;;;;;12.27;5.22;;;13.70;93.90;;;;;;4957487;28;20066;-69
2022/06/14 06:17:16;;;;;;;11.07;4.85;;;13.80;94.20;;;;;;4962222;28;20031;-69
2022/06/14 06:19:54;;;;;;;10.75;4.78;;;13.90;94.20;;;;;;4968765;28;20039;-69
2022/06/14 06:22:43;;;;;;;13.45;5.10;;;14.10;94.30;;;;;;4967676;28;20031;-69
2022/06/14 06:25:26;;;;;;;11.88;4.90;;;14.30;94.30;;;;;;4965810;28;20428;-69
2022/06/14 06:28:02;;;;;;;13.90;4.72;;;14.40;93.90;;;;;;4958426;28;20038;-69
2022/06/14 06:31:07;;;;;;;9.25;4.05;;;14.50;94.00;;;;;;4968118;28;20035;-69
2022/06/14 06:33:36;;;;;;;8.95;4.60;;;14.50;93.60;;;;;;4970102;28;20122;-69
2022/06/14 06:36:25;;;;;;;9.98;4.60;;;14.80;93.70;;;;;;4973231;28;20321;-69
2022/06/14 06:38:59;;;;;;;11.27;4.97;;;14.90;93.50;;;;;;4954350;28;20389;-70
2022/06/14 06:41:49;;;;;;;10.98;4.47;;;14.90;93.40;;;;;;5010343;28;20024;-70
2022/06/14 06:44:37;;;;;;;9.05;4.72;;;15.00;92.60;;;;;;4959951;28;20424;-69
2022/06/14 06:47:10;;;;;;;9.80;4.60;;;15.20;93.30;;;;;;4970393;28;20424;-70
2022/06/14 06:50:03;;;;;;;10.50;4.55;;;15.40;92.70;;;;;;4968287;28;20351;-69
2022/06/14 06:52:49;;;;;;;9.93;4.95;;;15.50;92.50;;;;;;4987812;28;20027;-69
2022/06/14 06:55:24;;;;;;;10.43;4.20;;;15.50;92.70;;;;;;4961534;28;20109;-70
2022/06/14 06:57:52;;;;;;;9.75;4.03;;;15.70;93.20;;;;;;4975738;28;20026;-70
2022/06/14 07:00:20;;;;;;;11.70;4.78;;;15.90;92.10;;;;;;4984146;28;20035;-70
2022/06/14 07:02:51;;;;;;;11.85;4.68;;;15.90;92.10;;;;;;4972875;28;20058;-70
2022/06/14 07:05:18;;;;;;;8.25;4.22;;;16.00;91.90;;;;;;4993085;28;20026;-70
2022/06/14 07:07:46;;;;;;;11.00;4.55;;;16.10;92.00;;;;;;4983136;28;20035;-70
2022/06/14 07:10:29;;;;;;;11.23;4.50;;;16.20;91.40;;;;;;4978800;28;20022;-70
2022/06/14 07:13:04;;;;;;;11.15;4.68;;;16.30;91.60;;;;;;4974142;28;20424;-70
2022/06/14 07:15:53;;;;;;;11.35;4.82;;;16.40;90.80;;;;;;4972397;28;20106;-70
2022/06/14 07:18:22;;;;;;;9.70;4.43;;;16.30;90.70;;;;;;4973070;28;20027;-70
2022/06/14 07:21:19;;;;;;;12.95;4.25;;;16.40;90.60;;;;;;4972988;28;20019;-70
2022/06/14 07:24:15;;;;;;;7.35;3.58;;;16.70;91.00;;;;;;4974029;28;20118;-70
2022/06/14 07:27:10;;;;;;;9.25;3.72;;;17.80;88.20;;;;;;4974028;28;20301;-70
2022/06/14 07:29:35;;;;;;;;;;;19.40;84.10;;;;;;4979025;28;20045;-70
2022/06/14 07:32:20;;;;;;;9.75;3.78;;;20.60;81.50;;;;;;4973897;28;20287;-70
2022/06/14 07:34:47;;;;;;;8.98;3.80;;;21.20;77.50;;;;;;4974066;28;20026;-70
2022/06/14 07:37:31;;;;;;;8.88;3.35;;;21.10;77.70;;;;;;4972610;28;20042;-70
2022/06/14 07:40:14;;;;;;;9.82;3.28;;;21.60;77.10;;;;;;4972943;28;20122;-70
2022/06/14 07:42:42;;;;;;;9.93;3.35;;;22.20;75.30;;;;;;4954664;28;20036;-69
2022/06/14 07:45:28;;;;;;;6.78;3.03;;;22.20;75.30;;;;;;4954780;28;20419;-69
2022/06/14 07:48:11;;;;;;;9.70;3.70;;;22.30;75.30;;;;;;4953430;28;20349;-70
2022/06/14 07:50:46;;;;;;;7.50;3.00;;;22.90;73.90;;;;;;4953478;28;20023;-70
2022/06/14 07:53:25;;;;;;;10.48;3.17;;;22.90;73.60;;;;;;4961770;28;20339;-70
2022/06/14 07:55:58;;;;;;;9.30;3.35;;;23.00;73.40;;;;;;4973788;28;20483;-70
2022/06/14 07:58:53;;;;;;;6.25;3.10;;;23.30;71.80;;;;;;4973614;28;20031;-70
2022/06/14 08:01:31;;;;;;;7.85;3.08;;;23.80;72.00;;;;;;4983433;28;20317;-69
2022/06/14 08:04:06;;;;;;;8.15;3.45;;;24.00;70.30;;;;;;4972614;28;20479;-69
2022/06/14 08:06:41;;;;;;;9.07;3.10;;;24.30;70.00;;;;;;4973593;28;20046;-70
2022/06/14 08:09:32;;;;;;;7.15;3.00;;;24.50;68.40;;;;;;4972270;28;20447;-69
2022/06/14 08:12:00;;;;;;;9.23;3.40;;;24.60;69.10;;;;;;4973530;28;20030;-69
2022/06/14 08:14:50;;;;;;;8.32;3.42;;;24.80;68.70;;;;;;4973711;28;20034;-68
2022/06/14 08:17:25;;;;;;;9.13;3.47;;;24.60;68.50;;;;;;4972483;28;20050;-70
2022/06/14 08:20:28;;;;;;;7.93;3.40;;;24.30;68.90;;;;;;4973254;28;20419;-70
2022/06/14 08:23:01;;;;;;;9.07;3.55;;;24.60;69.20;;;;;;4972176;28;20046;-72
2022/06/14 08:25:32;;;;;;;9.00;3.20;;;24.50;68.70;;;;;;4972457;28;20298;-70
2022/06/14 08:28:11;;;;;;;10.35;4.47;;;24.30;68.70;;;;;;4971694;28;20050;-69
2022/06/14 08:30:42;;;;;;;9.43;3.78;;;24.10;70.80;;;;;;4979797;28;20078;-69
2022/06/14 08:33:17;;;;;;;9.30;3.70;;;24.10;68.70;;;;;;4968354;28;20077;-70
2022/06/14 08:35:45;;;;;;;9.05;3.55;;;24.30;69.00;;;;;;4960140;28;20027;-69
2022/06/14 08:38:46;;;;;;;10.07;3.60;;;24.40;68.70;;;;;;4973145;28;20035;-70
2022/06/14 08:41:30;;;;;;;7.25;3.05;;;25.00;67.90;;;;;;4966789;28;20039;-69
2022/06/14 08:44:03;;;;;;;10.40;3.50;;;26.00;66.00;;;;;;4957262;28;20073;-70
2022/06/14 08:46:45;;;;;;;8.05;3.20;;;26.10;64.10;;;;;;4963195;28;20027;-69
2022/06/14 08:49:39;;;;;;;11.65;3.30;;;25.80;65.60;;;;;;4972184;28;20104;-70
2022/06/14 08:52:22;;;;;;;13.32;3.35;;;26.20;65.50;;;;;;4975375;28;20031;-70
2022/06/14 08:55:24;;;;;;;9.00;2.95;;;27.00;62.90;;;;;;4976300;28;20081;-69
2022/06/14 08:58:11;;;;;;;6.82;2.60;;;26.30;63.50;;;;;;4969875;28;20109;-69
2022/06/14 09:00:45;;;;;;;8.57;3.15;;;26.50;61.90;;;;;;4975234;28;20030;-70
2022/06/14 09:03:33;;;;;;;7.47;3.17;;;27.10;61.60;;;;;;4973253;28;20395;-69
2022/06/14 09:06:13;;;;;;;9.55;3.72;;;26.70;62.20;;;;;;4969228;28;20061;-69
2022/06/14 09:08:53;;;;;;;8.45;3.20;;;26.40;63.60;;;;;;4956650;28;20329;-70
2022/06/14 09:11:43;;;;;;;9.60;3.10;;;26.50;63.50;;;;;;4956782;28;20050;-70
2022/06/14 09:14:27;;;;;;;9.23;3.50;;;26.50;62.30;;;;;;4959840;28;20027;-70
2022/06/14 09:17:02;;;;;;;7.85;3.33;;;26.80;60.80;;;;;;4969280;28;20129;-69
2022/06/14 09:20:14;;;;;;;10.00;3.33;;;26.50;62.40;;;;;;4955525;28;20023;-69
2022/06/14 09:23:00;;;;;;;9.60;3.30;;;26.80;61.70;;;;;;4956474;28;20028;-69
2022/06/14 09:25:48;;;;;;;10.25;3.58;;;26.20;62.40;;;;;;4959176;28;20049;-69
2022/06/14 09:28:54;;;;;;;9.90;3.65;;;25.50;64.10;;;;;;4976597;28;20043;-70
2022/06/14 09:31:33;;;;;;;8.35;2.95;;;25.70;64.20;;;;;;4965315;28;20428;-69
2022/06/14 09:34:27;;;;;;;7.47;2.90;;;26.20;64.20;;;;;;4972467;28;20416;-70
2022/06/14 09:37:08;;;;;;;9.15;3.13;;;26.70;61.30;;;;;;4973036;28;20043;-70
2022/06/14 09:40:18;;;;;;;10.48;3.15;;;27.30;60.70;;;;;;4974264;28;20039;-70
2022/06/14 09:42:43;;;;;;;6.32;3.00;;;27.30;59.70;;;;;;5032838;28;20115;-70
2022/06/14 09:45:21;;;;;;;8.60;3.35;;;27.40;56.80;;;;;;4983210;28;20120;-70
2022/06/14 09:47:55;;;;;;;5.47;2.50;;;27.80;57.30;;;;;;4966018;28;20420;-70
2022/06/14 09:50:55;;;;;;;7.25;2.65;;;28.10;57.10;;;;;;4972835;28;20035;-70
2022/06/14 09:53:49;;;;;;;9.57;3.10;;;27.40;57.40;;;;;;4975455;28;20039;-70
2022/06/14 09:56:45;;;;;;;9.27;2.93;;;26.80;59.40;;;;;;4997884;28;20031;-70
2022/06/14 09:59:30;;;;;;;10.30;2.67;;;26.70;58.20;;;;;;4972030;28;20332;-69
2022/06/14 10:02:15;;;;;;;6.72;2.53;;;27.00;58.70;;;;;;4957002;28;20034;-70
2022/06/14 10:05:06;;;;;;;8.52;2.83;;;26.60;59.80;;;;;;4957177;28;20087;-69
2022/06/14 10:07:41;;;;;;;6.18;2.63;;;27.20;59.10;;;;;;4968366;28;20080;-70
2022/06/14 10:10:24;;;;;;;7.13;2.90;;;28.10;59.30;;;;;;4971754;28;20023;-69
2022/06/14 10:13:09;;;;;;;9.52;3.10;;;28.60;55.30;;;;;;4993422;28;20037;-69
2022/06/14 10:16:05;;;;;;;6.03;2.80;;;28.10;56.00;;;;;;4972646;28;20049;-69
2022/06/14 10:18:42;;;;;;;9.13;3.00;;;27.60;57.30;;;;;;4968003;28;20046;-69
2022/06/14 10:21:19;;;;;;;7.63;3.13;;;27.60;56.60;;;;;;4973691;28;20117;-68
2022/06/14 10:23:55;;;;;;;8.02;2.83;;;27.30;57.30;;;;;;4972716;28;20320;-69
2022/06/14 10:29:58;;;;;;;6.60;3.08;;;27.90;58.50;;;;;;4973454;28;20096;-69
2022/06/14 10:32:35;;;;;;;6.82;2.72;;;28.00;56.50;;;;;;4960084;28;20032;-68
2022/06/14 10:35:04;;;;;;;7.57;2.65;;;27.90;57.80;;;;;;4973014;28;20035;-69
2022/06/14 10:38:03;;;;;;;5.60;2.55;;;28.10;60.00;;;;;;4965427;28;20039;-69
2022/06/14 10:40:36;;;;;;;5.28;2.08;;;28.60;56.40;;;;;;4955336;28;20413;-70
2022/06/14 10:43:11;;;;;;;;;;;28.80;53.40;;;;;;4965679;28;20384;-70
2022/06/14 10:45:47;;;;;;;4.53;2.13;;;28.10;51.70;;;;;;4955084;28;19983;-69
2022/06/14 10:48:21;;;;;;;7.47;2.55;;;27.90;56.10;;;;;;4957868;28;20446;-70
2022/06/14 10:51:10;;;;;;;5.63;2.00;;;28.40;53.60;;;;;;4968523;28;20441;-69
2022/06/14 10:53:50;;;;;;;7.30;2.28;;;28.30;54.60;;;;;;4958136;28;20568;-69
2022/06/14 10:56:38;;;;;;;10.30;2.47;;;28.70;55.20;;;;;;4964228;28;20038;-69
2022/06/14 10:59:23;;;;;;;9.15;2.33;;;28.60;52.90;;;;;;4971495;28;20388;-69
2022/06/14 11:02:00;;;;;;;5.97;2.13;;;28.10;52.50;;;;;;4956960;28;20027;-69
2022/06/14 11:04:51;;;;;;;6.95;2.13;;;28.10;52.80;;;;;;4961456;28;20023;-69
2022/06/14 11:07:35;;;;;;;7.72;2.67;;;28.40;52.30;;;;;;4973101;28;20054;-68
2022/06/14 11:10:23;;;;;;;6.75;2.45;;;28.00;58.60;;;;;;4959118;28;20035;-68
2022/06/14 11:13:04;;;;;;;9.45;3.33;;;27.80;59.20;;;;;;4959828;28;20031;-71
2022/06/14 11:15:49;;;;;;;8.15;2.78;;;27.30;58.40;;;;;;4957250;28;20035;-72
2022/06/14 11:18:30;;;;;;;6.57;2.80;;;26.40;60.20;;;;;;4967063;28;20336;-71
2022/06/14 11:21:33;;;;;;;6.13;2.28;;;26.90;59.70;;;;;;4960816;28;20070;-70
2022/06/14 11:24:09;;;;;;;6.85;2.70;;;27.20;57.70;;;;;;4959653;28;20027;-70
2022/06/14 11:27:23;;;;;;;7.53;2.85;;;27.30;58.50;;;;;;4958612;28;20043;-70
2022/06/14 11:30:09;;;;;;;4.47;2.15;;;27.20;55.90;;;;;;5033801;28;20040;-70
2022/06/14 11:32:46;;;;;;;5.18;2.15;;;27.20;53.80;;;;;;4966113;28;20142;-70
2022/06/14 11:35:38;;;;;;;6.22;2.10;;;27.30;53.30;;;;;;4955488;28;20027;-70
2022/06/14 11:38:41;;;;;;;6.75;2.42;;;26.80;56.90;;;;;;4959918;28;20126;-70
2022/06/14 11:41:10;;;;;;;6.28;2.38;;;26.80;55.60;;;;;;4959810;28;20051;-70
2022/06/14 11:43:44;;;;;;;8.45;2.75;;;27.30;56.60;;;;;;4960997;28;20024;-70
2022/06/14 11:46:14;;;;;;;10.27;3.42;;;27.10;58.50;;;;;;4964336;28;20134;-70
2022/06/14 11:49:00;;;;;;;6.63;3.10;;;26.60;59.70;;;;;;4970572;28;20123;-71
2022/06/14 11:52:03;;;;;;;6.60;2.95;;;26.40;60.50;;;;;;4976422;28;20322;-70
2022/06/14 11:54:34;;;;;;;5.57;2.75;;;26.40;60.80;;;;;;5028486;28;20063;-70
2022/06/14 11:57:15;;;;;;;7.85;3.00;;;26.60;62.60;;;;;;4971205;28;20031;-69
2022/06/14 11:59:54;;;;;;;7.18;2.85;;;27.40;60.30;;;;;;4983461;28;20050;-70
2022/06/14 12:02:38;;;;;;;6.70;2.80;;;27.90;58.70;;;;;;4953823;28;20043;-69
2022/06/14 12:05:32;;;;;;;7.07;3.00;;;28.00;59.20;;;;;;4957960;28;20363;-70
2022/06/14 12:08:05;;;;;;;;;;;28.10;58.60;;;;;;4962100;28;20432;-69
2022/06/14 12:10:46;;;;;;;7.50;2.92;;;28.00;57.70;;;;;;4959885;28;20189;-69
2022/06/14 12:13:20;;;;;;;4.60;2.42;;;27.80;57.40;;;;;;4962899;28;20050;-69
2022/06/14 12:16:00;;;;;;;6.35;3.03;;;27.70;56.10;;;;;;4958563;28;20063;-70
2022/06/14 12:18:30;;;;;;;6.82;3.00;;;27.70;60.30;;;;;;4956176;28;20027;-70
2022/06/14 12:21:13;;;;;;;7.18;2.90;;;27.50;59.30;;;;;;4994183;28;20103;-70
2022/06/14 12:23:49;;;;;;;6.03;2.60;;;27.70;58.80;;;;;;4967307;28;20030;-70
2022/06/14 12:26:47;;;;;;;6.00;2.65;;;28.20;57.10;;;;;;4971737;28;20102;-70
2022/06/14 12:29:24;;;;;;;7.72;3.03;;;28.10;59.40;;;;;;4978840;28;20122;-70
2022/06/14 12:32:12;;;;;;;7.30;3.33;;;27.80;57.60;;;;;;4969222;28;20106;-69
2022/06/14 12:34:56;;;;;;;7.70;2.88;;;27.60;58.50;;;;;;4979194;28;20026;-70
2022/06/14 12:37:43;;;;;;;8.05;3.00;;;27.60;58.60;;;;;;4975507;28;20043;-69
2022/06/14 12:40:21;;;;;;;8.65;3.05;;;27.90;58.10;;;;;;5028283;28;20043;-70
2022/06/14 12:42:55;;;;;;;5.75;2.78;;;28.20;59.40;;;;;;4975838;28;20428;-70
2022/06/14 12:45:27;;;;;;;6.78;2.30;;;28.80;57.70;;;;;;4967077;28;20027;-70
2022/06/14 12:48:22;;;;;;;6.70;2.17;;;29.30;55.60;;;;;;4964166;28;20023;-70
2022/06/14 12:50:49;;;;;;;;;;;29.80;52.40;;;;;;4965957;28;20022;-70
2022/06/14 12:53:52;;;;;;;7.47;2.83;;;29.80;53.80;;;;;;4973249;28;20199;-70
2022/06/14 12:56:29;;;;;;;6.32;2.50;;;29.50;55.50;;;;;;4958758;28;20039;-70
2022/06/14 12:59:31;;;;;;;5.25;2.22;;;29.40;55.10;;;;;;4959713;28;20031;-70
2022/06/14 13:02:19;;;;;;;7.13;2.78;;;29.40;55.20;;;;;;4970842;28;20027;-70
2022/06/14 13:04:48;;;;;;;9.95;3.00;;;29.60;54.40;;;;;;4975546;28;20019;-70
2022/06/14 13:07:26;;;;;;;7.90;2.60;;;29.40;54.80;;;;;;4984169;28;20035;-70
2022/06/14 13:10:19;;;;;;;6.80;2.50;;;29.40;56.80;;;;;;4980151;28;20074;-69
2022/06/14 13:13:17;;;;;;;4.10;2.20;;;29.80;54.60;;;;;;4974664;28;20035;-70
2022/06/14 13:15:57;;;;;;;11.93;3.13;;;30.00;54.20;;;;;;4975962;28;20309;-70
2022/06/14 13:18:50;;;;;;;6.88;2.45;;;30.50;52.30;;;;;;4985944;28;20034;-71
2022/06/14 13:21:42;;;;;;;6.55;2.45;;;30.50;52.80;;;;;;4955364;28;20054;-70
2022/06/14 13:24:19;;;;;;;5.47;2.28;;;30.50;54.00;;;;;;4968432;28;20042;-70
2022/06/14 13:26:57;;;;;;;7.15;2.90;;;30.40;54.50;;;;;;4974289;28;20316;-70
2022/06/14 13:30:14;;;;;;;7.70;2.90;;;30.70;52.40;;;;;;4974180;28;20027;-70
2022/06/14 13:33:05;;;;;;;6.45;2.88;;;31.00;53.30;;;;;;4980300;28;20421;-70
2022/06/14 13:35:52;;;;;;;8.15;3.10;;;29.70;53.20;;;;;;4965525;28;20031;-70
2022/06/14 13:38:50;;;;;;;8.77;2.70;;;29.50;52.80;;;;;;4969482;28;20050;-70
2022/06/14 13:41:26;;;;;;;6.38;2.70;;;30.20;54.80;;;;;;4983921;28;20031;-70
2022/06/14 13:44:04;;;;;;;5.90;2.10;;;31.00;52.40;;;;;;4980770;28;20054;-70
2022/06/14 13:46:34;;;;;;;6.90;2.65;;;31.50;52.10;;;;;;4976897;28;20033;-70
2022/06/14 13:49:04;;;;;;;7.68;2.72;;;32.30;50.80;;;;;;4990708;28;20419;-70
2022/06/14 13:51:57;;;;;;;5.13;2.25;;;32.70;49.30;;;;;;4993550;28;20034;-70
2022/06/14 13:54:43;;;;;;;6.82;2.60;;;32.30;50.80;;;;;;4993625;28;20029;-69
2022/06/14 13:57:23;;;;;;;8.77;2.42;;;32.20;49.50;;;;;;4978174;28;20089;-69
2022/06/14 13:59:52;;;;;;;4.10;2.00;;;32.80;51.90;;;;;;4982088;28;20031;-70
2022/06/14 14:02:37;;;;;;;4.78;1.77;;;33.50;47.40;;;;;;4973239;28;20142;-69
2022/06/14 14:05:43;;;;;;;5.95;2.00;;;33.20;46.90;;;;;;4974090;28;20023;-69